createdAt,value
2018-09-11T00:01:42.843Z,1.23
2018-09-11T00:04:13.636Z,1.37
2018-09-11T00:06:42.815Z,1.20
2018-09-11T00:09:13.496Z,1.83
2018-09-11T00:11:43.315Z,1.60
2018-09-11T00:14:12.461Z,1.40
2018-09-11T00:16:41.738Z,1.40
2018-09-11T00:19:10.807Z,2.00
2018-09-11T00:21:39.879Z,1.67
2018-09-11T00:24:09.027Z,1.20
2018-09-11T00:26:38.152Z,0.97
2018-09-11T00:29:07.225Z,1.50
2018-09-11T00:31:36.303Z,1.60
2018-09-11T00:34:05.432Z,1.87
2018-09-11T00:36:34.523Z,1.20
2018-09-11T00:39:03.816Z,1.30
2018-09-11T00:41:32.878Z,1.10
2018-09-11T00:44:01.931Z,1.57
2018-09-11T00:46:31.134Z,1.70
2018-09-11T00:49:00.312Z,1.50
2018-09-11T00:51:29.396Z,1.47
2018-09-11T00:53:58.518Z,1.70
2018-09-11T00:56:27.582Z,1.40
2018-09-11T00:58:56.694Z,1.37
2018-09-11T01:01:25.809Z,1.30
2018-09-11T01:03:55.027Z,1.27
2018-09-11T01:06:24.180Z,1.07
2018-09-11T01:08:53.488Z,1.73
2018-09-11T01:11:22.523Z,1.60
2018-09-11T01:13:51.595Z,1.50
2018-09-11T01:16:20.655Z,1.67
2018-09-11T01:18:49.860Z,1.60
2018-09-11T01:21:19.247Z,1.57
2018-09-11T01:23:48.371Z,1.10
2018-09-11T01:26:17.443Z,1.20
2018-09-11T01:28:46.573Z,1.33
2018-09-11T01:31:15.819Z,1.37
2018-09-11T01:33:44.936Z,1.20
2018-09-11T01:36:14.116Z,1.53
2018-09-11T01:38:43.264Z,1.30
2018-09-11T01:41:12.363Z,1.60
2018-09-11T01:43:41.514Z,1.50
2018-09-11T01:46:10.610Z,1.63
2018-09-11T01:48:39.712Z,1.30
2018-09-11T01:51:08.828Z,1.43
2018-09-11T01:53:37.907Z,1.57
2018-09-11T01:56:06.975Z,1.30
2018-09-11T01:58:36.097Z,1.30
2018-09-11T02:01:05.199Z,1.70
2018-09-11T02:03:34.259Z,1.77
2018-09-11T02:06:03.512Z,1.20
2018-09-11T02:08:32.589Z,1.17
2018-09-11T02:11:01.707Z,1.40
2018-09-11T02:13:30.743Z,1.30
2018-09-11T02:15:59.875Z,1.70
2018-09-11T02:18:28.994Z,1.53
2018-09-11T02:20:58.114Z,1.07
2018-09-11T02:23:27.267Z,1.40
2018-09-11T02:25:56.310Z,1.37
2018-09-11T02:28:25.582Z,1.40
2018-09-11T02:30:54.672Z,1.17
2018-09-11T02:33:23.771Z,1.53
2018-09-11T02:35:52.891Z,1.53
2018-09-11T02:38:22.164Z,1.80
2018-09-11T02:40:51.241Z,1.93
2018-09-11T02:43:20.357Z,1.60
2018-09-11T02:45:49.466Z,1.40
2018-09-11T02:48:18.542Z,1.57
2018-09-11T02:50:47.625Z,1.30
2018-09-11T02:53:16.724Z,1.13
2018-09-11T02:55:46.044Z,1.20
2018-09-11T02:58:15.106Z,1.63
2018-09-11T03:00:44.247Z,1.23
2018-09-11T03:03:13.310Z,1.60
2018-09-11T03:05:42.416Z,1.20
2018-09-11T03:08:11.484Z,1.57
2018-09-11T03:10:40.618Z,1.57
2018-09-11T03:13:09.802Z,1.57
2018-09-11T03:15:38.869Z,1.93
2018-09-11T03:18:08.308Z,1.50
2018-09-11T03:20:37.383Z,1.57
2018-09-11T03:23:06.486Z,1.80
2018-09-11T03:25:35.583Z,1.93
2018-09-11T03:28:04.690Z,1.90
2018-09-11T03:30:33.766Z,2.03
2018-09-11T03:33:02.860Z,2.17
2018-09-11T03:35:31.948Z,1.70
2018-09-11T03:38:01.085Z,1.90
2018-09-11T03:40:30.202Z,1.53
2018-09-11T03:42:59.419Z,1.80
2018-09-11T03:45:28.478Z,1.57
2018-09-11T03:47:57.580Z,1.50
2018-09-11T03:50:26.666Z,1.37
2018-09-11T03:52:55.722Z,1.53
2018-09-11T03:55:24.875Z,1.60
2018-09-11T03:57:54.025Z,1.80
2018-09-11T04:00:23.127Z,1.57
2018-09-11T04:02:52.202Z,1.77
2018-09-11T04:05:21.409Z,1.97
2018-09-11T04:07:50.637Z,1.60
2018-09-11T04:10:19.720Z,1.70
2018-09-11T04:12:48.694Z,1.43
2018-09-11T04:15:17.831Z,1.47
2018-09-11T04:17:46.883Z,1.70
2018-09-11T04:20:16.025Z,1.70
2018-09-11T04:22:45.094Z,1.97
2018-09-11T04:25:14.218Z,2.00
2018-09-11T04:27:43.206Z,1.70
2018-09-11T04:30:12.290Z,2.30
2018-09-11T04:32:41.392Z,1.63
2018-09-11T04:35:10.480Z,1.67
2018-09-11T04:37:39.868Z,1.30
2018-09-11T04:40:11.913Z,1.77
2018-09-11T04:42:41.148Z,1.70
2018-09-11T04:45:10.362Z,1.40
2018-09-11T04:47:39.422Z,1.87
2018-09-11T04:50:08.423Z,1.90
2018-09-11T04:52:37.488Z,1.80
2018-09-11T04:55:06.630Z,1.67
2018-09-11T04:57:35.782Z,2.20
2018-09-11T05:00:04.797Z,1.40
2018-09-11T05:02:33.891Z,1.60
2018-09-11T05:05:03.033Z,2.17
2018-09-11T05:07:32.091Z,1.53
2018-09-11T05:10:01.195Z,1.53
2018-09-11T05:12:30.327Z,1.97
2018-09-11T05:14:59.407Z,1.63
2018-09-11T05:17:28.501Z,1.37
2018-09-11T05:19:57.601Z,1.73
2018-09-11T05:22:26.678Z,1.37
2018-09-11T05:24:55.762Z,1.37
2018-09-11T05:27:24.976Z,1.50
2018-09-11T05:29:54.214Z,1.60
2018-09-11T05:32:23.222Z,1.57
2018-09-11T05:34:52.351Z,1.60
2018-09-11T05:37:21.665Z,1.80
2018-09-11T05:39:50.833Z,1.50
2018-09-11T05:42:19.954Z,1.80
2018-09-11T05:44:48.929Z,1.30
2018-09-11T05:47:18.073Z,1.80
2018-09-11T05:49:47.346Z,1.50
2018-09-11T05:52:16.422Z,1.40
2018-09-11T05:54:45.510Z,2.23
2018-09-11T05:57:14.531Z,1.70
2018-09-11T05:59:43.642Z,1.67
2018-09-11T06:02:12.710Z,1.87
2018-09-11T06:04:41.829Z,1.70
2018-09-11T06:07:11.034Z,1.53
2018-09-11T06:09:40.112Z,1.87
2018-09-11T06:12:09.224Z,1.20
2018-09-11T06:14:38.210Z,1.47
2018-09-11T06:17:07.284Z,1.40
2018-09-11T06:19:36.398Z,1.80
2018-09-11T06:22:05.390Z,1.70
2018-09-11T06:24:34.492Z,1.60
2018-09-11T06:27:03.604Z,1.77
2018-09-11T06:29:32.902Z,1.70
2018-09-11T06:32:01.984Z,1.87
2018-09-11T06:34:30.992Z,1.60
2018-09-11T06:37:00.101Z,1.70
2018-09-11T06:39:29.276Z,1.77
2018-09-11T06:41:58.315Z,1.40
2018-09-11T06:44:27.465Z,1.53
2018-09-11T06:46:56.463Z,1.47
2018-09-11T06:49:25.736Z,1.30
2018-09-11T06:51:54.845Z,1.90
2018-09-11T06:54:23.936Z,1.47
2018-09-11T06:56:53.064Z,1.97
2018-09-11T06:59:22.223Z,1.43
2018-09-11T07:01:51.274Z,1.50
2018-09-11T07:04:20.504Z,1.60
2018-09-11T07:06:49.543Z,2.00
2018-09-11T07:09:28.475Z,1.90
2018-09-11T07:11:57.638Z,1.90
2018-09-11T07:14:26.645Z,1.67
2018-09-11T07:16:55.908Z,2.00
2018-09-11T07:19:25.080Z,1.43
2018-09-11T07:21:55.146Z,2.20
2018-09-11T07:24:24.299Z,1.40
2018-09-11T07:26:53.397Z,2.13
2018-09-11T07:29:22.584Z,2.03
2018-09-11T07:31:51.782Z,2.07
2018-09-11T07:34:20.936Z,1.90
2018-09-11T07:36:56.396Z,1.53
2018-09-11T07:39:25.409Z,2.13
2018-09-11T07:41:54.459Z,1.87
2018-09-11T07:44:23.776Z,1.90
2018-09-11T07:46:52.907Z,1.77
2018-09-11T07:49:22.078Z,1.77
2018-09-11T07:51:51.180Z,2.00
2018-09-11T07:54:20.290Z,1.90
2018-09-11T07:56:49.383Z,1.87
2018-09-11T07:59:18.471Z,1.87
2018-09-11T08:01:48.635Z,2.00
2018-09-11T08:04:17.783Z,1.60
2018-09-11T08:06:46.887Z,1.87
2018-09-11T08:09:15.987Z,2.03
2018-09-11T08:11:45.085Z,2.13
2018-09-11T08:14:14.280Z,1.93
2018-09-11T08:16:43.603Z,2.00
2018-09-11T08:19:12.883Z,2.30
2018-09-11T08:21:41.983Z,2.57
2018-09-11T08:24:11.103Z,1.90
2018-09-11T08:26:40.271Z,2.30
2018-09-11T08:29:09.507Z,1.70
2018-09-11T08:31:38.771Z,2.03
2018-09-11T08:34:07.867Z,2.13
2018-09-11T08:36:37.051Z,2.27
2018-09-11T08:39:08.588Z,1.73
2018-09-11T08:41:37.752Z,2.20
2018-09-11T08:44:06.909Z,2.07
2018-09-11T08:46:36.039Z,2.70
2018-09-11T08:49:05.344Z,1.97
2018-09-11T08:51:34.487Z,2.33
2018-09-11T08:54:03.682Z,2.00
2018-09-11T08:56:32.695Z,2.27
2018-09-11T08:59:01.784Z,2.80
2018-09-11T09:01:30.876Z,2.00
2018-09-11T09:03:59.987Z,1.80
2018-09-11T09:06:29.060Z,2.33
2018-09-11T09:08:58.464Z,2.20
2018-09-11T09:11:27.549Z,2.00
2018-09-11T09:13:56.784Z,2.50
2018-09-11T09:16:25.852Z,2.23
2018-09-11T09:18:54.936Z,2.30
2018-09-11T09:21:24.055Z,2.20
2018-09-11T09:23:53.166Z,2.33
2018-09-11T09:26:22.200Z,2.03
2018-09-11T09:28:51.339Z,2.00
2018-09-11T09:31:20.463Z,1.87
2018-09-11T09:33:49.832Z,2.30
2018-09-11T09:36:18.823Z,2.17
2018-09-11T09:38:47.973Z,2.30
2018-09-11T09:41:17.042Z,2.13
2018-09-11T09:43:46.113Z,2.17
2018-09-11T09:46:15.440Z,2.40
2018-09-11T09:48:44.496Z,2.37
2018-09-11T09:51:13.615Z,2.70
2018-09-11T09:53:42.758Z,2.13
2018-09-11T09:56:11.814Z,2.43
2018-09-11T09:58:40.896Z,2.23
2018-09-11T10:01:15.345Z,2.10
2018-09-11T10:03:44.623Z,2.00
2018-09-11T10:06:13.715Z,2.60
2018-09-11T10:08:42.838Z,2.27
2018-09-11T10:11:11.903Z,2.30
2018-09-11T10:13:41.004Z,2.30
2018-09-11T10:16:10.223Z,2.00
2018-09-11T10:18:39.391Z,1.90
2018-09-11T10:21:08.519Z,2.20
2018-09-11T10:23:37.580Z,2.10
2018-09-11T10:26:06.791Z,2.53
2018-09-11T10:28:35.847Z,2.20
2018-09-11T10:31:04.975Z,2.03
2018-09-11T10:33:34.111Z,2.10
2018-09-11T10:36:03.384Z,2.40
2018-09-11T10:38:32.476Z,2.30
2018-09-11T10:41:01.579Z,2.20
2018-09-11T10:43:30.688Z,2.00
2018-09-11T10:45:59.887Z,2.10
2018-09-11T10:48:28.987Z,2.37
2018-09-11T10:50:58.075Z,2.50
2018-09-11T10:53:27.258Z,1.90
2018-09-11T10:55:56.314Z,1.77
2018-09-11T10:58:25.401Z,2.33
2018-09-11T11:00:54.571Z,2.63
2018-09-11T11:03:23.754Z,2.27
2018-09-11T11:05:52.864Z,2.10
2018-09-11T11:08:22.194Z,2.70
2018-09-11T11:10:51.347Z,2.10
2018-09-11T11:13:20.448Z,2.77
2018-09-11T11:15:49.672Z,2.23
2018-09-11T11:18:18.844Z,2.20
2018-09-11T11:20:47.953Z,2.53
2018-09-11T11:23:17.032Z,2.77
2018-09-11T11:25:46.139Z,2.20
2018-09-11T11:28:15.216Z,2.10
2018-09-11T11:30:44.316Z,2.67
2018-09-11T11:33:13.360Z,2.13
2018-09-11T11:35:42.604Z,2.43
2018-09-11T11:38:11.705Z,1.77
2018-09-11T11:40:40.805Z,2.37
2018-09-11T11:43:09.908Z,2.27
2018-09-11T11:45:39.050Z,2.90
2018-09-11T11:48:08.132Z,2.20
2018-09-11T11:50:37.484Z,1.80
2018-09-11T11:53:06.603Z,2.20
2018-09-11T11:55:36.049Z,2.17
2018-09-11T11:58:05.395Z,2.20
2018-09-11T12:00:34.787Z,2.30
2018-09-11T12:03:03.873Z,2.00
2018-09-11T12:05:32.980Z,2.20
2018-09-11T12:08:02.092Z,2.20
2018-09-11T12:10:31.293Z,2.40
2018-09-11T12:13:00.678Z,2.33
2018-09-11T12:15:29.794Z,2.90
2018-09-11T12:17:58.883Z,1.93
2018-09-11T12:20:27.940Z,2.97
2018-09-11T12:22:56.991Z,2.57
2018-09-11T12:25:26.242Z,2.20
2018-09-11T12:27:55.550Z,2.20
2018-09-11T12:30:24.652Z,2.33
2018-09-11T12:32:53.778Z,2.20
2018-09-11T12:35:22.853Z,2.40
2018-09-11T12:37:51.956Z,2.53
2018-09-11T12:40:21.056Z,2.60
2018-09-11T12:42:50.250Z,2.17
2018-09-11T12:45:19.326Z,2.07
2018-09-11T12:47:48.684Z,2.50
2018-09-11T12:50:17.750Z,2.40
2018-09-11T12:52:46.811Z,2.80
2018-09-11T12:55:15.919Z,2.37
2018-09-11T12:57:45.019Z,2.47
2018-09-11T13:00:14.130Z,2.00
2018-09-11T13:02:43.196Z,2.57
2018-09-11T13:05:12.394Z,2.43
2018-09-11T13:07:41.443Z,2.50
2018-09-11T13:10:10.597Z,2.57
2018-09-11T13:12:39.719Z,2.63
2018-09-11T13:15:08.852Z,2.80
2018-09-11T13:17:38.087Z,3.03
2018-09-11T13:20:07.204Z,2.70
2018-09-11T13:22:36.436Z,2.50
2018-09-11T13:25:05.652Z,2.30
2018-09-11T13:27:34.737Z,2.57
2018-09-11T13:30:03.969Z,2.37
2018-09-11T13:32:33.098Z,2.40
2018-09-11T13:35:02.283Z,2.53
2018-09-11T13:37:31.376Z,2.23
2018-09-11T13:40:00.650Z,2.20
2018-09-11T13:42:29.759Z,2.50
2018-09-11T13:44:58.988Z,2.63
2018-09-11T13:47:28.578Z,2.40
2018-09-11T13:49:58.028Z,2.97
2018-09-11T13:52:27.215Z,2.07
2018-09-11T13:54:56.299Z,2.87
2018-09-11T13:57:25.483Z,3.10
2018-09-11T13:59:57.052Z,3.07
2018-09-11T14:02:26.344Z,2.37
2018-09-11T14:04:55.594Z,3.47
2018-09-11T14:07:24.691Z,3.07
2018-09-11T14:09:53.884Z,2.73
2018-09-11T14:12:24.060Z,2.50
2018-09-11T14:14:53.186Z,2.20
2018-09-11T14:17:22.380Z,2.47
2018-09-11T14:19:51.589Z,2.63
2018-09-11T14:22:20.683Z,2.83
2018-09-11T14:24:49.833Z,3.07
2018-09-11T14:27:18.956Z,3.23
2018-09-11T14:29:48.044Z,2.90
2018-09-11T14:32:17.124Z,2.60
2018-09-11T14:34:46.377Z,3.23
2018-09-11T14:37:15.465Z,2.50
2018-09-11T14:39:44.749Z,2.90
2018-09-11T14:42:13.799Z,2.80
2018-09-11T14:44:42.929Z,3.63
2018-09-11T14:47:12.011Z,3.40
2018-09-11T14:49:41.079Z,3.03
2018-09-11T14:52:10.222Z,3.03
2018-09-11T14:54:39.647Z,2.93
2018-09-11T14:57:08.731Z,3.00
2018-09-11T14:59:37.891Z,2.87
2018-09-11T15:02:06.998Z,3.27
2018-09-11T15:04:36.101Z,2.77
2018-09-11T15:07:05.510Z,2.97
2018-09-11T15:09:34.623Z,3.33
2018-09-11T15:12:03.787Z,4.13
2018-09-11T15:14:32.871Z,2.70
2018-09-11T15:17:01.934Z,3.40
2018-09-11T15:19:31.083Z,2.47
2018-09-11T15:22:00.179Z,3.13
2018-09-11T15:24:29.245Z,3.47
2018-09-11T15:26:58.370Z,2.90
2018-09-11T15:29:27.456Z,2.87
2018-09-11T15:31:56.561Z,3.33
2018-09-11T15:34:25.647Z,3.07
2018-09-11T15:36:54.729Z,3.13
2018-09-11T15:39:23.917Z,2.77
2018-09-11T15:41:53.032Z,2.70
2018-09-11T15:44:22.298Z,2.73
2018-09-11T15:46:51.447Z,3.10
2018-09-11T15:49:20.474Z,3.30
2018-09-11T15:51:49.660Z,3.13
2018-09-11T15:54:18.835Z,2.73
2018-09-11T15:56:47.927Z,2.80
2018-09-11T15:59:17.068Z,2.90
2018-09-11T16:01:46.389Z,3.13
2018-09-11T16:04:15.572Z,3.07
2018-09-11T16:06:44.811Z,2.83
2018-09-11T16:09:14.249Z,3.10
2018-09-11T16:11:43.449Z,2.83
2018-09-11T16:14:12.749Z,3.03
2018-09-11T16:16:41.802Z,2.73
2018-09-11T16:19:11.017Z,3.10
2018-09-11T16:21:40.119Z,2.87
2018-09-11T16:24:09.220Z,2.40
2018-09-11T16:26:38.404Z,2.60
2018-09-11T16:29:07.481Z,2.80
2018-09-11T16:31:36.601Z,3.17
2018-09-11T16:34:05.703Z,2.90
2018-09-11T16:36:34.793Z,3.00
2018-09-11T16:39:05.372Z,2.90
2018-09-11T16:41:34.503Z,2.70
2018-09-11T16:44:03.804Z,3.10
2018-09-11T16:46:33.142Z,2.80
2018-09-11T16:49:02.512Z,2.90
2018-09-11T16:51:31.625Z,3.23
2018-09-11T16:54:03.795Z,3.70
2018-09-11T16:56:33.139Z,3.07
2018-09-11T16:59:02.353Z,2.83
2018-09-11T17:01:31.503Z,3.10
2018-09-11T17:04:00.617Z,3.50
2018-09-11T17:06:29.715Z,3.20
2018-09-11T17:08:58.772Z,3.10
2018-09-11T17:11:27.881Z,2.90
2018-09-11T17:13:56.993Z,2.93
2018-09-11T17:16:26.147Z,2.90
2018-09-11T17:18:55.240Z,3.47
2018-09-11T17:21:24.373Z,2.83
2018-09-11T17:23:53.469Z,2.97
2018-09-11T17:26:22.627Z,3.37
2018-09-11T17:28:51.750Z,3.40
2018-09-11T17:31:20.834Z,3.27
2018-09-11T17:33:49.934Z,3.40
2018-09-11T17:36:18.990Z,3.20
2018-09-11T17:38:48.110Z,3.20
2018-09-11T17:41:17.187Z,3.03
2018-09-11T17:43:46.320Z,3.50
2018-09-11T17:46:15.506Z,3.27
2018-09-11T17:48:44.651Z,3.07
2018-09-11T17:51:13.955Z,2.80
2018-09-11T17:53:43.103Z,3.70
2018-09-11T17:56:12.214Z,3.10
2018-09-11T17:58:41.753Z,3.30
2018-09-11T18:01:10.815Z,3.23
2018-09-11T18:03:40.066Z,3.10
2018-09-11T18:06:09.370Z,3.60
2018-09-11T18:08:38.491Z,3.13
2018-09-11T18:11:07.827Z,3.73
2018-09-11T18:13:36.917Z,3.23
2018-09-11T18:16:05.983Z,2.80
2018-09-11T18:18:35.186Z,3.07
2018-09-11T18:21:04.289Z,3.57
2018-09-11T18:23:33.427Z,3.37
2018-09-11T18:26:02.602Z,3.27
2018-09-11T18:28:31.680Z,2.93
2018-09-11T18:31:00.789Z,4.07
2018-09-11T18:33:30.121Z,3.43
2018-09-11T18:35:59.224Z,3.53
2018-09-11T18:38:28.401Z,3.60
2018-09-11T18:40:57.685Z,4.03
2018-09-11T18:43:26.868Z,3.03
2018-09-11T18:45:56.042Z,3.60
2018-09-11T18:48:25.293Z,3.43
2018-09-11T18:50:54.411Z,3.67
2018-09-11T18:53:23.561Z,3.90
2018-09-11T18:55:52.694Z,4.40
2018-09-11T18:58:21.875Z,4.00
2018-09-11T19:00:51.068Z,3.87
2018-09-11T19:03:20.189Z,4.43
2018-09-11T19:05:49.452Z,4.10
2018-09-11T19:08:18.562Z,3.50
2018-09-11T19:10:47.653Z,3.57
2018-09-11T19:13:16.849Z,3.80
2018-09-11T19:15:45.997Z,4.50
2018-09-11T19:18:15.086Z,4.00
2018-09-11T19:20:44.229Z,3.80
2018-09-11T19:23:13.375Z,4.33
2018-09-11T19:25:42.487Z,4.10
2018-09-11T19:28:11.644Z,4.37
2018-09-11T19:30:40.841Z,4.30
2018-09-11T19:33:10.030Z,4.23
2018-09-11T19:35:39.250Z,4.07
2018-09-11T19:38:08.527Z,3.80
2018-09-11T19:40:37.661Z,4.20
2018-09-11T19:43:06.829Z,4.73
2018-09-11T19:45:36.010Z,4.30
2018-09-11T19:48:05.233Z,4.23
2018-09-11T19:50:34.456Z,3.97
2018-09-11T19:53:03.828Z,4.47
2018-09-11T19:55:33.006Z,4.10
2018-09-11T19:58:02.153Z,4.90
2018-09-11T20:00:31.312Z,3.90
2018-09-11T20:03:00.430Z,3.83
2018-09-11T20:05:29.612Z,4.30
2018-09-11T20:07:58.721Z,4.23
2018-09-11T20:10:27.902Z,3.93
2018-09-11T20:12:56.997Z,3.83
2018-09-11T20:15:26.084Z,4.07
2018-09-11T20:17:55.819Z,4.80
2018-09-11T20:20:24.987Z,3.77
2018-09-11T20:22:54.075Z,4.77
2018-09-11T20:25:23.247Z,4.13
2018-09-11T20:27:52.502Z,4.07
2018-09-11T20:30:21.675Z,4.37
2018-09-11T20:32:50.920Z,4.10
2018-09-11T20:35:20.099Z,4.10
2018-09-11T20:37:49.321Z,4.80
2018-09-11T20:40:18.588Z,3.97
2018-09-11T20:42:47.688Z,4.50
2018-09-11T20:45:16.903Z,4.57
2018-09-11T20:47:46.182Z,4.17
2018-09-11T20:50:15.248Z,4.37
2018-09-11T20:52:44.374Z,4.30
2018-09-11T20:55:13.556Z,4.17
2018-09-11T20:57:42.644Z,4.27
2018-09-11T21:00:11.728Z,4.27
2018-09-11T21:02:40.804Z,4.60
2018-09-11T21:05:09.936Z,4.60
2018-09-11T21:07:38.996Z,4.30
2018-09-11T21:10:08.122Z,4.53
2018-09-11T21:12:37.183Z,4.07
2018-09-11T21:15:06.387Z,3.83
2018-09-11T21:17:35.547Z,3.93
2018-09-11T21:20:04.836Z,4.23
2018-09-11T21:22:33.948Z,3.80
2018-09-11T21:25:03.152Z,4.70
2018-09-11T21:27:32.228Z,4.30
2018-09-11T21:30:01.528Z,3.90
2018-09-11T21:32:30.600Z,3.93
2018-09-11T21:34:59.699Z,3.97
2018-09-11T21:37:28.796Z,4.47
2018-09-11T21:39:57.893Z,4.60
2018-09-11T21:42:27.027Z,4.30
2018-09-11T21:44:56.104Z,4.17
2018-09-11T21:47:25.207Z,3.87
2018-09-11T21:49:54.294Z,4.23
2018-09-11T21:52:23.589Z,4.17
2018-09-11T21:54:52.733Z,4.60
2018-09-11T21:57:21.899Z,3.90
2018-09-11T21:59:50.974Z,4.70
2018-09-11T22:02:20.088Z,4.00
2018-09-11T22:04:49.177Z,3.67
2018-09-11T22:07:18.247Z,4.40
2018-09-11T22:09:47.374Z,4.30
2018-09-11T22:12:16.471Z,3.90
2018-09-11T22:14:45.675Z,4.80
2018-09-11T22:17:14.907Z,4.50
2018-09-11T22:19:44.007Z,3.97
2018-09-11T22:22:13.077Z,4.03
2018-09-11T22:24:42.401Z,4.23
2018-09-11T22:27:11.668Z,4.00
2018-09-11T22:29:40.767Z,3.90
2018-09-11T22:32:09.919Z,3.63
2018-09-11T22:34:39.004Z,4.03
2018-09-11T22:37:08.159Z,3.77
2018-09-11T22:39:37.411Z,3.63
2018-09-11T22:42:06.559Z,3.43
2018-09-11T22:44:35.823Z,3.80
2018-09-11T22:47:05.036Z,4.07
2018-09-11T22:49:34.238Z,3.80
2018-09-11T22:52:03.638Z,3.53
2018-09-11T22:54:32.752Z,3.60
2018-09-11T22:57:01.867Z,3.80
2018-09-11T22:59:31.047Z,3.73
2018-09-11T23:02:00.153Z,3.83
2018-09-11T23:04:29.236Z,3.57
2018-09-11T23:06:58.337Z,4.20
2018-09-11T23:09:27.424Z,3.53
2018-09-11T23:11:56.579Z,3.30
2018-09-11T23:14:25.709Z,3.50
2018-09-11T23:16:54.900Z,3.60
2018-09-11T23:19:24.091Z,3.60
2018-09-11T23:21:53.167Z,3.43
2018-09-11T23:24:22.279Z,3.57
2018-09-11T23:26:51.403Z,3.33
2018-09-11T23:29:20.463Z,4.20
2018-09-11T23:31:49.569Z,4.30
2018-09-11T23:34:18.551Z,3.50
2018-09-11T23:36:47.671Z,3.80
2018-09-11T23:39:16.760Z,3.77
2018-09-11T23:41:45.975Z,3.30
2018-09-11T23:44:15.156Z,3.30
2018-09-11T23:46:44.223Z,3.23
2018-09-11T23:49:13.299Z,3.00
2018-09-11T23:51:42.355Z,3.13
2018-09-11T23:54:11.407Z,3.17
2018-09-11T23:56:40.531Z,3.53
2018-09-11T23:59:09.587Z,3.80
